ADDS METAR Data INFO
IDs: Format: Raw Decoded Include TAF

Data at: 0837 UTC 21 Oct 2017

KHFJ 210810Z AUTO 14008KT 10SM CLR 15/12 A2996 RMK AO2
KHFJ 210750Z AUTO 15008KT 10SM CLR 15/12 A2996 RMK AO2 LTG DSNT N
KHFJ 210730Z AUTO 14007KT 10SM CLR 15/12 A2996 RMK AO2
KHFJ 210710Z AUTO 14007KT 10SM CLR 15/12 A2996 RMK AO2
KHFJ 210650Z AUTO 15008KT 10SM CLR 16/12 A2997 RMK AO2
KHFJ 210630Z AUTO 15007KT 10SM CLR 16/12 A2997 RMK AO2
KHFJ 210610Z AUTO 15009G14KT 10SM CLR 16/12 A2996 RMK AO2
KHFJ 210550Z AUTO 15010G16KT 10SM CLR 16/12 A2996 RMK AO2
KHFJ 210530Z AUTO 15010G14KT 10SM CLR 16/12 A2996 RMK AO2
KHFJ 210510Z AUTO 14009KT 10SM CLR 16/13 A2996 RMK AO2
KHFJ 210450Z AUTO 14009KT 10SM CLR 16/13 A2996 RMK AO2
KHFJ 210430Z AUTO 16007KT 10SM CLR 16/13 A2997 RMK AO2
KHFJ 210410Z AUTO 14009G15KT 10SM CLR 16/13 A2996 RMK AO2
KHFJ 210350Z AUTO 14010G14KT 10SM CLR 16/14 A2996 RMK AO2
KHFJ 210330Z AUTO 14008KT 10SM CLR 17/14 A2997 RMK AO2
KHFJ 210310Z AUTO 15009KT 10SM CLR 17/14 A2997 RMK AO2
KHFJ 210250Z AUTO 14009G15KT 10SM CLR 17/14 A2996 RMK AO2
KHFJ 210230Z AUTO 15011G15KT 10SM CLR 17/14 A2996 RMK AO2
KHFJ 210210Z AUTO 15010KT 10SM CLR 17/14 A2996 RMK AO2
KHFJ 210150Z AUTO 13008KT 10SM CLR 17/14 A2996 RMK AO2
KHFJ 210130Z AUTO 14008KT 10SM CLR 17/14 A2997 RMK AO2
KHFJ 210110Z AUTO 14009KT 10SM CLR 17/14 A2997 RMK AO2
KHFJ 210050Z AUTO 14008G14KT 10SM CLR 18/14 A2997 RMK AO2
KHFJ 210030Z AUTO 14008KT 10SM CLR 18/13 A2997 RMK AO2
KHFJ 210010Z AUTO 14008KT 10SM CLR 18/13 A2997 RMK AO2
KHFJ 202350Z AUTO 15008KT 10SM CLR 18/13 A2997 RMK AO2
KHFJ 202330Z AUTO 14009KT 10SM CLR 19/14 A2997 RMK AO2
KHFJ 202310Z AUTO 15008G15KT 10SM CLR 20/14 A2997 RMK AO2
KHFJ 202250Z AUTO 14011G15KT 10SM CLR 21/14 A2997 RMK AO2
KHFJ 202230Z AUTO 15012G18KT 10SM CLR 21/13 A2998 RMK AO2
KHFJ 202210Z AUTO 15011G16KT 10SM CLR 21/13 A2999 RMK AO2
KHFJ 202150Z AUTO 16014KT 10SM CLR 21/13 A3000 RMK AO2
KHFJ 202130Z AUTO 15011G16KT 10SM CLR 22/13 A3000 RMK AO2
KHFJ 202110Z AUTO 15012G17KT 10SM CLR 22/13 A3001 RMK AO2
KHFJ 202050Z AUTO 17010G16KT 10SM SCT110 22/13 A3002 RMK AO2
KHFJ 202030Z AUTO 16010KT 10SM BKN110 21/12 A3002 RMK AO2
KHFJ 202010Z AUTO 17014G17KT 10SM SCT070 BKN120 21/12 A3003 RMK AO2
KHFJ 201950Z AUTO 16013G16KT 10SM BKN070 21/12 A3004 RMK AO2
KHFJ 201930Z AUTO 17010KT 10SM CLR 21/12 A3005 RMK AO2
KHFJ 201910Z AUTO 15009G15KT 10SM CLR 20/12 A3006 RMK AO2
KHFJ 201850Z AUTO 17011KT 10SM SCT120 21/13 A3006 RMK AO2
KHFJ 201830Z AUTO 14008KT 10SM OVC120 22/13 A3007 RMK AO2
KHFJ 201810Z AUTO 15009KT 10SM BKN120 21/13 A3008 RMK AO2
KHFJ 201750Z AUTO 15008KT 10SM SCT120 21/13 A3008 RMK AO2
KHFJ 201730Z AUTO 15009KT 10SM CLR 21/13 A3010 RMK AO2
KHFJ 201710Z AUTO 15008KT 10SM CLR 21/14 A3011 RMK AO2
KHFJ 201650Z AUTO 17009KT 10SM CLR 21/13 A3012 RMK AO2
KHFJ 201630Z AUTO 17007KT 10SM SCT110 21/13 A3012 RMK AO2
KHFJ 201610Z AUTO 17007KT 10SM SCT110 20/13 A3012 RMK AO2
KHFJ 201550Z AUTO 17008KT 10SM CLR 20/12 A3014 RMK AO2
KHFJ 201530Z AUTO 17009KT 10SM CLR 18/13 A3015 RMK AO2
KHFJ 201510Z AUTO 16008KT 10SM CLR 17/12 A3016 RMK AO2
KHFJ 201450Z AUTO 14007KT 10SM CLR 16/12 A3016 RMK AO2
KHFJ 201430Z AUTO 14006KT 10SM CLR 14/11 A3017 RMK AO2
KHFJ 201410Z AUTO 13006KT 10SM CLR 13/11 A3015 RMK AO2
KHFJ 201350Z AUTO 13006KT 10SM CLR 12/10 A3015 RMK AO2
KHFJ 201330Z AUTO 12006KT 10SM CLR 12/10 A3015 RMK AO2
KHFJ 201310Z AUTO 13007KT 10SM CLR 11/10 A3015 RMK AO2
KHFJ 201250Z AUTO 13006KT 10SM CLR 11/10 A3015 RMK AO2
KHFJ 201230Z AUTO 13007KT 10SM CLR 10/09 A3015 RMK AO2
KHFJ 201210Z AUTO 14006KT 10SM CLR 11/09 A3016 RMK AO2
KHFJ 201150Z AUTO 14007KT 10SM CLR 11/10 A3016 RMK AO2
KHFJ 201130Z AUTO 14007KT 10SM CLR 11/10 A3016 RMK AO2
KHFJ 201110Z AUTO 14007KT 10SM CLR 11/09 A3016 RMK AO2
KHFJ 201050Z AUTO 14006KT 10SM CLR 11/09 A3016 RMK AO2
KHFJ 201030Z AUTO 14005KT 10SM CLR 11/09 A3015 RMK AO2
KHFJ 201010Z AUTO 14005KT 10SM CLR 11/09 A3015 RMK AO2
KHFJ 200950Z AUTO 13005KT 10SM CLR 11/09 A3015 RMK AO2
KHFJ 200930Z AUTO 13005KT 10SM CLR 11/09 A3015 RMK AO2
KHFJ 200910Z AUTO 14006KT 10SM CLR 11/09 A3015 RMK AO2
KHFJ 200850Z AUTO 14006KT 10SM CLR 11/09 A3016 RMK AO2
KHFJ 200830Z AUTO 15006KT 10SM CLR 11/08 A3016 RMK AO2
KHFJ 200810Z AUTO 15004KT 10SM CLR 12/09 A3016 RMK AO2
KHFJ 200750Z AUTO 14004KT 10SM CLR 12/09 A3016 RMK AO2
KHFJ 200730Z AUTO 13003KT 10SM CLR 12/09 A3015 RMK AO2
KHFJ 200710Z AUTO 15003KT 10SM CLR 12/09 A3015 RMK AO2
KHFJ 200650Z AUTO 14003KT 10SM CLR 12/09 A3015 RMK AO2
KHFJ 200630Z AUTO 16003KT 10SM CLR 12/09 A3015 RMK AO2
KHFJ 200610Z AUTO 16004KT 10SM CLR 12/09 A3015 RMK AO2
KHFJ 200550Z AUTO 15005KT 10SM CLR 12/09 A3014 RMK AO2
KHFJ 200530Z AUTO 14005KT 10SM CLR 13/09 A3015 RMK AO2
KHFJ 200510Z AUTO 14005KT 10SM CLR 13/09 A3015 RMK AO2
KHFJ 200450Z AUTO 13004KT 10SM CLR 13/09 A3015 RMK AO2
KHFJ 200430Z AUTO 13004KT 10SM CLR 13/09 A3015 RMK AO2
KHFJ 200410Z AUTO 13005KT 10SM CLR 14/09 A3015 RMK AO2
KHFJ 200350Z AUTO 13005KT 10SM CLR 15/10 A3015 RMK AO2
KHFJ 200330Z AUTO 15005KT 10SM CLR 15/10 A3015 RMK AO2
KHFJ 200310Z AUTO 14005KT 10SM CLR 15/10 A3015 RMK AO2
KHFJ 200250Z AUTO 14006KT 10SM CLR 16/10 A3014 RMK AO2
KHFJ 200230Z AUTO 15005KT 10SM CLR 16/10 A3014 RMK AO2
KHFJ 200210Z AUTO 16006KT 10SM CLR 16/10 A3014 RMK AO2
KHFJ 200150Z AUTO 15006KT 10SM CLR 16/10 A3014 RMK AO2
KHFJ 200130Z AUTO 13005KT 10SM CLR 16/10 A3014 RMK AO2
KHFJ 200110Z AUTO 13005KT 10SM CLR 16/10 A3013 RMK AO2
KHFJ 200050Z AUTO 14005KT 10SM CLR 17/10 A3013 RMK AO2
KHFJ 200030Z AUTO 14004KT 10SM CLR 17/10 A3013 RMK AO2
KHFJ 200010Z AUTO 14004KT 10SM CLR 18/10 A3013 RMK AO2
KHFJ 192350Z AUTO 14004KT 10SM CLR 18/10 A3013 RMK AO2
KHFJ 192330Z AUTO 14004KT 10SM CLR 20/10 A3013 RMK AO2
KHFJ 192310Z AUTO 14004KT 10SM CLR 20/10 A3013 RMK AO2
KHFJ 192250Z AUTO 16005KT 10SM CLR 21/10 A3013 RMK AO2
KHFJ 192230Z AUTO 17003KT 10SM CLR 22/11 A3013 RMK AO2
KHFJ 192210Z AUTO 18005KT 10SM CLR 24/11 A3014 RMK AO2
KHFJ 192150Z AUTO 19005KT 10SM CLR 23/11 A3014 RMK AO2
KHFJ 192130Z AUTO 17004KT 10SM CLR 23/11 A3014 RMK AO2
KHFJ 192110Z AUTO 16004KT 10SM CLR 23/10 A3014 RMK AO2
KHFJ 192050Z AUTO 16006KT 10SM CLR 23/10 A3014 RMK AO2